Time;durP1;ratioP1;P1;durP2;ratioP2;P2;SDS_P1;SDS_P2;PMS_P1;PMS_P2;Temp;Humidity;BMP_temperature;BMP_pressure;BME280_temperature;BME280_humidity;BME280_pressure;Samples;Min_cycle;Max_cycle;Signal;HPM_P1;HPM_P2
2023/09/29 00:01:33;;;;;;;10.73;2.80;;;;;;;;;;4951020;28;92989;-89
2023/09/29 00:04:01;;;;;;;10.77;3.13;;;;;;;;;;4949588;28;92817;-89
2023/09/29 00:06:27;;;;;;;12.43;3.25;;;;;;;;;;4950674;28;93003;-88
2023/09/29 00:08:54;;;;;;;10.88;3.38;;;;;;;;;;4950541;28;92451;-88
2023/09/29 00:11:21;;;;;;;11.82;3.05;;;;;;;;;;4951202;28;93415;-88
2023/09/29 00:13:47;;;;;;;10.98;2.90;;;;;;;;;;4949662;28;93501;-87
2023/09/29 00:16:14;;;;;;;9.75;2.85;;;;;;;;;;4951577;28;92632;-88
2023/09/29 00:18:40;;;;;;;9.70;2.75;;;;;;;;;;4963559;28;95789;-88
2023/09/29 00:21:07;;;;;;;10.70;2.20;;;;;;;;;;4950703;28;93412;-88
2023/09/29 00:23:35;;;;;;;11.73;2.70;;;;;;;;;;4954184;28;93038;-88
2023/09/29 00:26:01;;;;;;;11.48;2.83;;;;;;;;;;4949570;28;93101;-88
2023/09/29 00:28:28;;;;;;;10.85;2.78;;;;;;;;;;4950033;28;92525;-87
2023/09/29 00:30:54;;;;;;;9.30;2.53;;;;;;;;;;4946698;28;96211;-88
2023/09/29 00:33:21;;;;;;;12.45;2.53;;;;;;;;;;4975446;28;93410;-88
2023/09/29 00:35:48;;;;;;;11.20;2.75;;;;;;;;;;4949655;28;99652;-88
2023/09/29 00:38:14;;;;;;;9.98;2.60;;;;;;;;;;4950978;28;92748;-89
2023/09/29 00:40:41;;;;;;;10.38;2.78;;;;;;;;;;4950120;28;92532;-89
2023/09/29 00:43:08;;;;;;;10.60;2.90;;;;;;;;;;4947476;28;95731;-89
2023/09/29 00:45:35;;;;;;;10.07;2.58;;;;;;;;;;4951788;28;96845;-89
2023/09/29 00:48:07;;;;;;;11.43;2.70;;;;;;;;;;4950501;28;92369;-86
2023/09/29 00:50:34;;;;;;;11.75;3.25;;;;;;;;;;4950179;28;92341;-87
2023/09/29 00:53:07;;;;;;;11.88;2.80;;;;;;;;;;4948430;28;93183;-88
2023/09/29 00:55:35;;;;;;;12.35;2.60;;;;;;;;;;4942880;28;92433;-87
2023/09/29 00:58:02;;;;;;;9.60;2.58;;;;;;;;;;4949991;28;92740;-88
2023/09/29 01:02:57;;;;;;;10.13;3.00;;;;;;;;;;4951228;28;93150;-88
2023/09/29 01:05:25;;;;;;;13.55;3.60;;;;;;;;;;4950553;28;93028;-89
2023/09/29 01:07:51;;;;;;;;;;;;;;;;;;4937657;28;95917;-88
2023/09/29 01:10:18;;;;;;;11.63;3.10;;;;;;;;;;4965753;28;117343;-88
2023/09/29 01:12:44;;;;;;;12.57;3.50;;;;;;;;;;4947075;28;94506;-88
2023/09/29 01:15:13;;;;;;;11.15;3.05;;;;;;;;;;4956957;28;92608;-88
2023/09/29 01:17:43;;;;;;;10.90;3.20;;;;;;;;;;4950686;28;92750;-87
2023/09/29 01:20:17;;;;;;;11.80;3.50;;;;;;;;;;4949032;28;98667;-88
2023/09/29 01:22:47;;;;;;;10.63;3.40;;;;;;;;;;4962605;28;92443;-89
2023/09/29 01:25:15;;;;;;;10.98;2.80;;;;;;;;;;4979935;28;96165;-88
2023/09/29 01:27:42;;;;;;;12.50;3.05;;;;;;;;;;4960034;28;93307;-90
2023/09/29 01:30:10;;;;;;;13.10;3.38;;;;;;;;;;4952935;28;100915;-93
2023/09/29 01:32:37;;;;;;;12.23;3.58;;;;;;;;;;4934097;28;98525;-92
2023/09/29 01:35:06;;;;;;;11.88;3.20;;;;;;;;;;4964930;28;92529;-91
2023/09/29 01:37:34;;;;;;;10.13;2.80;;;;;;;;;;4960247;28;95812;-90
2023/09/29 01:40:00;;;;;;;13.43;3.30;;;;;;;;;;4929201;28;93218;-91
2023/09/29 01:42:27;;;;;;;12.23;3.28;;;;;;;;;;4942567;28;92748;-90
2023/09/29 01:44:53;;;;;;;12.60;3.95;;;;;;;;;;4953016;28;92507;-91
2023/09/29 01:47:21;;;;;;;9.98;3.10;;;;;;;;;;4956631;28;93292;-91
2023/09/29 01:49:48;;;;;;;10.07;3.28;;;;;;;;;;4965432;28;97016;-91
2023/09/29 01:52:15;;;;;;;11.98;3.00;;;;;;;;;;4926820;28;94785;-90
2023/09/29 01:54:41;;;;;;;12.40;3.70;;;;;;;;;;4941440;28;92850;-91
2023/09/29 01:57:08;;;;;;;11.23;3.28;;;;;;;;;;4954366;28;96478;-91
2023/09/29 01:59:36;;;;;;;10.95;3.28;;;;;;;;;;4950148;28;94069;-90
2023/09/29 02:02:02;;;;;;;9.40;3.20;;;;;;;;;;4952064;28;92852;-90
2023/09/29 02:04:29;;;;;;;13.95;4.00;;;;;;;;;;4952889;28;94058;-90
2023/09/29 02:06:55;;;;;;;12.32;3.10;;;;;;;;;;4951933;28;95537;-86
2023/09/29 02:09:23;;;;;;;11.35;3.63;;;;;;;;;;4954133;28;92566;-86
2023/09/29 02:11:50;;;;;;;10.88;3.40;;;;;;;;;;4956877;28;92746;-86
2023/09/29 02:14:16;;;;;;;11.80;2.80;;;;;;;;;;4950971;28;91759;-87
2023/09/29 02:16:43;;;;;;;10.30;3.20;;;;;;;;;;4952782;28;100387;-86
2023/09/29 02:19:10;;;;;;;10.93;3.13;;;;;;;;;;4936992;28;95913;-88
2023/09/29 02:21:37;;;;;;;11.68;3.17;;;;;;;;;;4965359;28;94996;-87
2023/09/29 02:24:04;;;;;;;9.80;3.00;;;;;;;;;;4932975;28;95263;-86
2023/09/29 02:26:30;;;;;;;10.50;2.85;;;;;;;;;;4931579;28;95683;-86
2023/09/29 02:28:57;;;;;;;11.07;2.92;;;;;;;;;;4932454;28;92431;-87
2023/09/29 02:31:26;;;;;;;11.93;3.25;;;;;;;;;;4942711;28;99491;-87
2023/09/29 02:33:53;;;;;;;11.10;3.05;;;;;;;;;;4936103;28;93000;-86
2023/09/29 02:36:19;;;;;;;11.50;3.47;;;;;;;;;;4927314;28;93018;-88
2023/09/29 02:38:46;;;;;;;9.40;2.95;;;;;;;;;;4933966;28;92945;-87
2023/09/29 02:41:13;;;;;;;9.38;2.60;;;;;;;;;;4940120;28;94751;-88
2023/09/29 02:43:40;;;;;;;9.73;3.50;;;;;;;;;;4932737;28;92895;-87
2023/09/29 02:46:14;;;;;;;8.43;2.78;;;;;;;;;;4946724;28;98010;-88
2023/09/29 02:48:41;;;;;;;11.55;2.90;;;;;;;;;;4966491;28;92496;-87
2023/09/29 02:51:15;;;;;;;12.60;3.33;;;;;;;;;;4951558;28;93849;-88
2023/09/29 02:53:42;;;;;;;9.63;3.70;;;;;;;;;;4946212;28;94747;-89
2023/09/29 02:56:10;;;;;;;8.65;2.78;;;;;;;;;;4948804;28;93292;-87
2023/09/29 02:58:38;;;;;;;8.73;3.20;;;;;;;;;;4951640;28;92521;-87
2023/09/29 03:01:18;;;;;;;10.90;2.80;;;;;;;;;;4966059;28;92738;-87
2023/09/29 03:03:45;;;;;;;9.52;3.00;;;;;;;;;;4951067;28;94609;-86
2023/09/29 03:06:16;;;;;;;12.00;3.42;;;;;;;;;;4949609;28;93370;-87
2023/09/29 03:08:42;;;;;;;11.80;3.50;;;;;;;;;;4935949;28;93810;-89
2023/09/29 03:11:09;;;;;;;12.20;3.63;;;;;;;;;;4965147;28;95177;-89
2023/09/29 03:13:37;;;;;;;12.95;3.70;;;;;;;;;;4951516;28;92994;-86
2023/09/29 03:16:06;;;;;;;14.55;3.65;;;;;;;;;;4965731;28;92893;-87
2023/09/29 03:18:34;;;;;;;8.15;2.72;;;;;;;;;;4953471;28;92772;-87
2023/09/29 03:21:04;;;;;;;10.05;3.35;;;;;;;;;;4951104;28;92482;-89
2023/09/29 03:23:34;;;;;;;11.15;3.58;;;;;;;;;;4951933;28;92880;-90
2023/09/29 03:26:01;;;;;;;10.98;3.15;;;;;;;;;;4950976;28;92949;-89
2023/09/29 03:28:29;;;;;;;9.00;3.05;;;;;;;;;;4950881;28;97984;-89
2023/09/29 03:30:55;;;;;;;11.13;3.50;;;;;;;;;;4953961;28;92465;-88
2023/09/29 03:33:22;;;;;;;9.82;3.35;;;;;;;;;;4942499;28;93523;-88
2023/09/29 03:35:48;;;;;;;10.65;3.17;;;;;;;;;;4946638;28;94962;-89
2023/09/29 03:38:20;;;;;;;8.70;3.38;;;;;;;;;;4965600;28;95635;-89
2023/09/29 03:40:50;;;;;;;9.38;3.47;;;;;;;;;;4939739;28;92450;-91
2023/09/29 03:43:17;;;;;;;11.10;4.00;;;;;;;;;;4951289;28;92579;-91
2023/09/29 03:45:43;;;;;;;10.43;3.20;;;;;;;;;;4946994;28;96235;-90
2023/09/29 03:48:10;;;;;;;8.80;3.05;;;;;;;;;;4930783;28;92487;-89
2023/09/29 03:50:36;;;;;;;9.63;3.30;;;;;;;;;;4929535;28;95797;-86
2023/09/29 03:53:03;;;;;;;12.05;3.40;;;;;;;;;;4913342;28;98542;-86
2023/09/29 03:55:30;;;;;;;8.57;3.28;;;;;;;;;;4930163;28;92868;-86
2023/09/29 03:57:56;;;;;;;10.15;2.95;;;;;;;;;;4930713;28;94406;-86
2023/09/29 04:00:23;;;;;;;9.02;3.17;;;;;;;;;;4942302;28;96089;-86
2023/09/29 04:02:50;;;;;;;10.18;3.47;;;;;;;;;;4952933;28;94288;-89
2023/09/29 04:05:18;;;;;;;8.23;2.97;;;;;;;;;;4951218;28;93128;-89
2023/09/29 04:07:45;;;;;;;9.00;3.50;;;;;;;;;;4956085;28;92843;-88
2023/09/29 04:10:13;;;;;;;9.82;3.42;;;;;;;;;;4956309;28;94149;-89
2023/09/29 04:12:46;;;;;;;8.93;3.13;;;;;;;;;;4952475;28;93250;-90
2023/09/29 04:15:13;;;;;;;9.07;2.97;;;;;;;;;;4950315;28;92452;-87
2023/09/29 04:17:40;;;;;;;10.30;3.38;;;;;;;;;;4952200;28;93459;-87
2023/09/29 04:20:07;;;;;;;8.63;2.92;;;;;;;;;;4947609;28;93385;-87
2023/09/29 04:22:34;;;;;;;7.63;2.70;;;;;;;;;;4949270;28;93130;-87
2023/09/29 04:25:01;;;;;;;8.95;3.13;;;;;;;;;;4943965;28;95359;-87
2023/09/29 04:27:30;;;;;;;8.05;2.97;;;;;;;;;;4960842;28;92517;-90
2023/09/29 04:29:56;;;;;;;9.48;3.05;;;;;;;;;;4936191;28;95732;-90
2023/09/29 04:32:23;;;;;;;8.07;2.92;;;;;;;;;;4951204;28;93636;-90
2023/09/29 04:34:49;;;;;;;7.75;3.00;;;;;;;;;;4967139;28;92941;-91
2023/09/29 04:37:16;;;;;;;9.52;3.20;;;;;;;;;;4954469;28;93031;-91
2023/09/29 04:39:43;;;;;;;9.38;3.15;;;;;;;;;;4941732;28;93278;-89
2023/09/29 04:42:09;;;;;;;10.18;3.00;;;;;;;;;;4943794;28;92447;-88
2023/09/29 04:44:37;;;;;;;7.60;3.03;;;;;;;;;;4935087;28;94337;-88
2023/09/29 04:47:04;;;;;;;8.85;3.00;;;;;;;;;;4935311;28;92473;-89
2023/09/29 04:49:31;;;;;;;8.45;2.95;;;;;;;;;;4933926;28;94752;-90
2023/09/29 04:51:58;;;;;;;9.07;2.90;;;;;;;;;;4926078;28;93179;-88
2023/09/29 04:54:24;;;;;;;6.68;2.65;;;;;;;;;;4931874;28;92761;-88
2023/09/29 04:56:51;;;;;;;7.80;2.80;;;;;;;;;;4935802;28;95449;-88
2023/09/29 04:59:18;;;;;;;8.00;2.97;;;;;;;;;;4933333;28;92975;-91
2023/09/29 05:01:45;;;;;;;8.05;2.90;;;;;;;;;;4956647;28;93214;-92
2023/09/29 05:04:11;;;;;;;7.90;2.90;;;;;;;;;;4951946;28;93120;-90
2023/09/29 05:06:39;;;;;;;9.45;2.80;;;;;;;;;;4971496;28;92887;-89
2023/09/29 05:09:06;;;;;;;7.90;2.78;;;;;;;;;;4950434;28;92428;-89
2023/09/29 05:11:32;;;;;;;8.65;2.72;;;;;;;;;;4950040;28;92954;-90
2023/09/29 05:13:59;;;;;;;8.85;2.72;;;;;;;;;;4943404;28;94898;-89
2023/09/29 05:16:26;;;;;;;8.15;2.85;;;;;;;;;;4940849;28;97833;-88
2023/09/29 05:18:53;;;;;;;7.45;2.90;;;;;;;;;;4961825;28;92499;-89
2023/09/29 05:21:23;;;;;;;9.57;2.75;;;;;;;;;;4963819;28;93415;-90
2023/09/29 05:23:50;;;;;;;7.20;2.85;;;;;;;;;;4948062;28;95409;-89
2023/09/29 05:26:16;;;;;;;8.23;2.78;;;;;;;;;;4950566;28;93202;-89
2023/09/29 05:28:43;;;;;;;8.02;3.10;;;;;;;;;;4948736;28;92469;-87
2023/09/29 05:31:10;;;;;;;8.00;2.60;;;;;;;;;;4958521;28;92474;-86
2023/09/29 05:33:36;;;;;;;8.10;2.58;;;;;;;;;;4970203;28;92373;-86
2023/09/29 05:36:03;;;;;;;7.40;2.85;;;;;;;;;;4962624;28;92830;-86
2023/09/29 05:38:30;;;;;;;8.70;2.83;;;;;;;;;;4973970;28;95402;-87
2023/09/29 05:40:57;;;;;;;7.18;2.78;;;;;;;;;;4955441;28;92516;-85
2023/09/29 05:43:23;;;;;;;7.60;2.63;;;;;;;;;;4952962;28;94638;-86
2023/09/29 05:45:50;;;;;;;7.78;2.53;;;;;;;;;;4951552;28;93648;-86
2023/09/29 05:48:17;;;;;;;7.78;2.65;;;;;;;;;;4955926;28;92415;-87
2023/09/29 05:50:44;;;;;;;8.23;2.80;;;;;;;;;;4952688;28;93632;-85
2023/09/29 05:53:12;;;;;;;8.30;2.42;;;;;;;;;;4952256;28;92490;-85
2023/09/29 05:55:38;;;;;;;9.35;2.80;;;;;;;;;;4948700;28;92871;-83
2023/09/29 05:58:05;;;;;;;8.98;2.60;;;;;;;;;;4941319;28;93837;-85
2023/09/29 06:00:32;;;;;;;6.63;2.40;;;;;;;;;;4957611;28;92464;-83
2023/09/29 06:02:59;;;;;;;9.68;2.88;;;;;;;;;;4953224;28;95428;-83
2023/09/29 06:05:29;;;;;;;10.13;2.65;;;;;;;;;;4965999;28;94373;-83
2023/09/29 06:07:56;;;;;;;6.70;2.65;;;;;;;;;;4950507;28;92813;-83
2023/09/29 06:10:25;;;;;;;8.75;2.95;;;;;;;;;;4949166;28;93315;-83
2023/09/29 06:12:52;;;;;;;6.22;2.30;;;;;;;;;;4941403;28;92643;-84
2023/09/29 06:15:19;;;;;;;7.03;2.65;;;;;;;;;;4939841;28;93218;-82
2023/09/29 06:17:45;;;;;;;7.75;3.20;;;;;;;;;;4956016;28;92810;-82
2023/09/29 06:20:12;;;;;;;5.63;2.13;;;;;;;;;;4951541;28;91822;-82
2023/09/29 06:22:39;;;;;;;9.00;3.00;;;;;;;;;;4951130;28;93153;-82
2023/09/29 06:25:05;;;;;;;8.30;2.20;;;;;;;;;;4950541;28;93042;-82
2023/09/29 06:27:32;;;;;;;8.23;2.70;;;;;;;;;;4949420;28;95626;-82
2023/09/29 06:29:58;;;;;;;6.28;2.47;;;;;;;;;;4942980;28;95192;-82
2023/09/29 06:32:25;;;;;;;9.82;2.63;;;;;;;;;;4968936;28;93464;-84
2023/09/29 06:34:52;;;;;;;6.97;2.60;;;;;;;;;;4946056;28;92929;-84
2023/09/29 06:37:18;;;;;;;6.20;2.28;;;;;;;;;;4942046;28;99460;-83
2023/09/29 06:39:45;;;;;;;9.02;2.38;;;;;;;;;;4949975;28;92428;-81
2023/09/29 06:42:11;;;;;;;5.57;2.40;;;;;;;;;;4951340;28;93615;-83
2023/09/29 06:44:38;;;;;;;7.97;2.70;;;;;;;;;;4965106;28;95328;-82
2023/09/29 06:47:05;;;;;;;7.60;2.42;;;;;;;;;;4964412;28;92517;-82
2023/09/29 06:49:31;;;;;;;6.32;2.17;;;;;;;;;;4949090;28;96189;-82
2023/09/29 06:51:58;;;;;;;7.88;2.50;;;;;;;;;;4946783;28;95604;-81
2023/09/29 06:54:24;;;;;;;6.75;2.33;;;;;;;;;;4943775;28;92547;-81
2023/09/29 06:56:51;;;;;;;6.63;2.50;;;;;;;;;;4949715;28;92962;-81
2023/09/29 06:59:18;;;;;;;7.65;2.60;;;;;;;;;;4949483;28;92950;-82
2023/09/29 07:01:45;;;;;;;7.00;2.40;;;;;;;;;;4949805;28;93081;-81
2023/09/29 07:04:11;;;;;;;7.47;2.70;;;;;;;;;;4949049;28;93526;-81
2023/09/29 07:06:38;;;;;;;7.20;2.78;;;;;;;;;;4943037;28;94411;-81
2023/09/29 07:09:07;;;;;;;10.32;2.63;;;;;;;;;;4932477;28;93411;-81
2023/09/29 07:11:33;;;;;;;5.20;2.40;;;;;;;;;;4930553;28;93218;-82
2023/09/29 07:14:00;;;;;;;7.22;2.60;;;;;;;;;;4943345;28;92885;-80
2023/09/29 07:16:27;;;;;;;7.43;2.75;;;;;;;;;;4946237;28;95753;-81
2023/09/29 07:18:53;;;;;;;6.95;2.80;;;;;;;;;;4928135;28;92536;-81
2023/09/29 07:21:20;;;;;;;6.90;2.53;;;;;;;;;;4930273;28;92778;-81
2023/09/29 07:23:47;;;;;;;8.07;2.55;;;;;;;;;;4917506;28;93184;-80
2023/09/29 07:26:13;;;;;;;6.63;2.90;;;;;;;;;;4944722;28;92631;-80
2023/09/29 07:28:40;;;;;;;7.22;2.63;;;;;;;;;;4922640;28;93614;-80
2023/09/29 07:31:07;;;;;;;7.05;2.40;;;;;;;;;;4923822;28;94659;-80
2023/09/29 07:33:34;;;;;;;6.38;2.50;;;;;;;;;;4930812;28;91720;-81
2023/09/29 07:36:01;;;;;;;6.47;2.33;;;;;;;;;;4932165;28;92587;-81
2023/09/29 07:38:27;;;;;;;5.53;2.40;;;;;;;;;;4930937;28;92497;-81
2023/09/29 07:40:54;;;;;;;7.45;2.38;;;;;;;;;;4938580;28;94764;-81
2023/09/29 07:43:21;;;;;;;6.63;2.88;;;;;;;;;;4935393;28;93800;-81
2023/09/29 07:45:48;;;;;;;;;;;;;;;;;;4931975;28;92532;-80
2023/09/29 07:48:16;;;;;;;6.72;2.60;;;;;;;;;;4950825;28;101721;-81
2023/09/29 07:50:43;;;;;;;6.70;2.50;;;;;;;;;;4930011;28;93685;-80
2023/09/29 07:53:11;;;;;;;7.60;2.70;;;;;;;;;;4928584;28;92856;-80
2023/09/29 07:55:38;;;;;;;6.55;2.55;;;;;;;;;;4928981;28;92707;-80
2023/09/29 07:58:05;;;;;;;6.45;2.45;;;;;;;;;;4932001;28;92471;-81
2023/09/29 08:00:31;;;;;;;6.68;2.50;;;;;;;;;;4928863;28;93200;-80
2023/09/29 08:02:58;;;;;;;6.63;2.50;;;;;;;;;;4928722;28;93815;-80
2023/09/29 08:05:25;;;;;;;6.22;2.63;;;;;;;;;;4927781;28;94889;-80
2023/09/29 08:07:53;;;;;;;6.95;2.67;;;;;;;;;;4923963;28;96756;-80
2023/09/29 08:10:19;;;;;;;7.72;2.67;;;;;;;;;;4925391;28;93206;-80
2023/09/29 08:12:46;;;;;;;6.72;2.30;;;;;;;;;;4929885;28;93403;-79
2023/09/29 08:15:13;;;;;;;6.47;2.78;;;;;;;;;;4929841;28;92781;-80
2023/09/29 08:17:41;;;;;;;6.72;2.60;;;;;;;;;;4952927;28;93046;-80
2023/09/29 08:20:08;;;;;;;8.63;2.00;;;;;;;;;;4951003;28;92949;-80
2023/09/29 08:22:35;;;;;;;8.40;2.95;;;;;;;;;;4945785;28;94184;-80
2023/09/29 08:25:10;;;;;;;9.57;2.53;;;;;;;;;;4941869;28;92787;-79
2023/09/29 08:27:37;;;;;;;9.27;2.40;;;;;;;;;;4965289;28;92519;-79
2023/09/29 08:30:04;;;;;;;8.88;2.30;;;;;;;;;;4943691;28;95528;-80
2023/09/29 08:32:31;;;;;;;5.45;2.10;;;;;;;;;;4956419;28;92811;-80
2023/09/29 08:34:58;;;;;;;9.10;2.30;;;;;;;;;;4956588;28;92425;-80
2023/09/29 08:37:25;;;;;;;5.97;2.28;;;;;;;;;;4957657;28;93749;-79
2023/09/29 08:39:53;;;;;;;5.43;2.13;;;;;;;;;;4959676;28;92398;-79
2023/09/29 08:42:29;;;;;;;4.85;2.00;;;;;;;;;;4960251;28;93080;-79
2023/09/29 08:44:58;;;;;;;4.90;2.03;;;;;;;;;;4960521;28;92477;-79
2023/09/29 08:47:28;;;;;;;6.75;2.13;;;;;;;;;;4954612;28;92978;-79
2023/09/29 08:49:56;;;;;;;6.18;2.05;;;;;;;;;;4974455;28;95215;-79
2023/09/29 08:52:24;;;;;;;5.15;1.92;;;;;;;;;;4964628;28;92436;-78
2023/09/29 08:54:50;;;;;;;4.80;2.15;;;;;;;;;;4957307;28;95439;-79
2023/09/29 08:57:17;;;;;;;9.27;2.10;;;;;;;;;;4937582;28;93911;-78
2023/09/29 08:59:45;;;;;;;5.68;2.00;;;;;;;;;;4952530;28;92712;-80
2023/09/29 09:02:12;;;;;;;5.53;2.00;;;;;;;;;;4964794;28;92973;-80
2023/09/29 09:04:39;;;;;;;4.30;2.00;;;;;;;;;;4966994;28;94597;-80
2023/09/29 09:07:05;;;;;;;6.95;2.10;;;;;;;;;;4964314;28;94364;-80
2023/09/29 09:09:35;;;;;;;5.03;1.70;;;;;;;;;;4948553;28;94346;-79
2023/09/29 09:12:02;;;;;;;6.88;2.20;;;;;;;;;;4944770;28;91738;-80
2023/09/29 09:14:39;;;;;;;7.55;2.10;;;;;;;;;;4948206;28;93006;-80
2023/09/29 09:17:07;;;;;;;5.03;2.00;;;;;;;;;;4951877;28;93141;-80
2023/09/29 09:19:45;;;;;;;4.80;2.00;;;;;;;;;;4948637;28;95351;-79
2023/09/29 09:22:16;;;;;;;6.18;2.00;;;;;;;;;;4948986;28;99539;-79
2023/09/29 09:24:47;;;;;;;5.18;2.08;;;;;;;;;;4947081;28;93006;-80
2023/09/29 09:27:14;;;;;;;6.47;2.42;;;;;;;;;;4966415;28;93321;-81
2023/09/29 09:29:41;;;;;;;6.25;2.03;;;;;;;;;;4950393;28;93671;-80
2023/09/29 09:32:10;;;;;;;5.50;2.20;;;;;;;;;;4950661;28;92828;-80
2023/09/29 09:34:37;;;;;;;4.10;1.83;;;;;;;;;;4950747;28;93432;-81
2023/09/29 09:37:11;;;;;;;8.57;2.08;;;;;;;;;;4948668;28;92290;-81
2023/09/29 09:39:38;;;;;;;6.43;2.38;;;;;;;;;;4950761;28;92572;-80
2023/09/29 09:42:05;;;;;;;5.70;2.03;;;;;;;;;;4947665;28;92697;-80
2023/09/29 09:44:34;;;;;;;4.65;1.98;;;;;;;;;;4948716;28;96253;-80
2023/09/29 09:47:00;;;;;;;6.65;2.17;;;;;;;;;;4956293;28;92410;-79
2023/09/29 09:49:34;;;;;;;4.88;2.00;;;;;;;;;;4953832;28;93157;-81
2023/09/29 09:52:04;;;;;;;6.53;2.03;;;;;;;;;;4951284;28;92416;-79
2023/09/29 09:54:32;;;;;;;6.00;2.10;;;;;;;;;;4952276;28;95565;-81
2023/09/29 09:57:08;;;;;;;6.13;1.95;;;;;;;;;;4954227;28;93704;-80
2023/09/29 09:59:36;;;;;;;5.03;1.90;;;;;;;;;;4956085;28;92573;-80
2023/09/29 10:02:06;;;;;;;5.25;1.98;;;;;;;;;;4950360;28;92864;-80
2023/09/29 10:04:34;;;;;;;4.53;1.77;;;;;;;;;;4949966;28;93078;-81
2023/09/29 10:07:03;;;;;;;6.97;2.00;;;;;;;;;;4946259;28;92675;-80
2023/09/29 10:09:46;;;;;;;5.00;2.00;;;;;;;;;;4952183;28;95505;-80
2023/09/29 10:12:26;;;;;;;4.82;2.15;;;;;;;;;;4930898;28;92923;-81
2023/09/29 10:14:53;;;;;;;5.18;2.00;;;;;;;;;;4925468;28;92957;-81
2023/09/29 10:17:20;;;;;;;4.22;1.90;;;;;;;;;;4929411;28;94348;-83
2023/09/29 10:19:51;;;;;;;5.50;2.00;;;;;;;;;;4943609;28;92710;-82
2023/09/29 10:22:24;;;;;;;5.50;1.90;;;;;;;;;;4930079;28;92871;-80
2023/09/29 10:24:59;;;;;;;6.15;2.50;;;;;;;;;;4926319;28;93056;-83
2023/09/29 10:27:33;;;;;;;4.95;1.80;;;;;;;;;;4929178;28;92080;-80
2023/09/29 10:30:16;;;;;;;6.63;2.20;;;;;;;;;;4929898;28;93119;-82
2023/09/29 10:32:48;;;;;;;5.07;1.92;;;;;;;;;;4932477;28;93783;-83
2023/09/29 10:35:19;;;;;;;5.18;2.03;;;;;;;;;;4928369;28;95337;-81
2023/09/29 10:37:49;;;;;;;6.28;2.00;;;;;;;;;;4930210;28;93241;-80
2023/09/29 10:40:20;;;;;;;7.25;1.90;;;;;;;;;;4929000;28;92738;-80
2023/09/29 10:42:47;;;;;;;5.85;1.88;;;;;;;;;;4930168;28;92865;-80
2023/09/29 10:45:37;;;;;;;6.25;1.90;;;;;;;;;;4928163;28;94149;-80
2023/09/29 10:48:07;;;;;;;5.25;2.00;;;;;;;;;;4923302;28;92772;-81
2023/09/29 10:50:41;;;;;;;6.40;2.03;;;;;;;;;;4930328;28;93117;-80
2023/09/29 10:53:07;;;;;;;4.50;1.88;;;;;;;;;;4928509;28;92959;-81
2023/09/29 10:55:42;;;;;;;5.22;2.10;;;;;;;;;;4930646;28;93627;-81
2023/09/29 10:58:10;;;;;;;5.95;1.90;;;;;;;;;;4930191;28;96507;-81
2023/09/29 11:00:42;;;;;;;6.07;2.10;;;;;;;;;;4927046;28;95039;-80
2023/09/29 11:03:13;;;;;;;7.00;2.10;;;;;;;;;;4930227;28;96675;-81
2023/09/29 11:05:50;;;;;;;6.57;2.00;;;;;;;;;;4929948;28;92933;-81
2023/09/29 11:08:19;;;;;;;5.97;2.03;;;;;;;;;;4929665;28;92546;-80
2023/09/29 11:10:53;;;;;;;5.72;2.10;;;;;;;;;;4927344;28;95868;-82
2023/09/29 11:13:27;;;;;;;6.45;2.50;;;;;;;;;;4929522;28;94040;-79
2023/09/29 11:15:58;;;;;;;6.28;2.28;;;;;;;;;;4920176;28;92540;-80
2023/09/29 11:18:26;;;;;;;7.03;2.20;;;;;;;;;;4937824;28;92845;-80
2023/09/29 11:20:53;;;;;;;4.38;1.80;;;;;;;;;;4925406;28;94510;-80
2023/09/29 11:23:19;;;;;;;6.38;2.17;;;;;;;;;;4922776;28;93720;-79
2023/09/29 11:26:03;;;;;;;4.80;1.90;;;;;;;;;;4923245;28;96923;-78
2023/09/29 11:28:30;;;;;;;9.00;2.05;;;;;;;;;;4944374;28;92501;-81
2023/09/29 11:30:56;;;;;;;9.05;2.28;;;;;;;;;;4930274;28;92708;-82
2023/09/29 11:33:25;;;;;;;9.65;2.25;;;;;;;;;;4929075;28;93141;-81
2023/09/29 11:35:52;;;;;;;6.30;2.20;;;;;;;;;;4928762;28;92614;-81
2023/09/29 11:38:33;;;;;;;6.97;1.85;;;;;;;;;;4931709;28;93167;-82
2023/09/29 11:41:00;;;;;;;6.22;2.10;;;;;;;;;;4935042;28;93252;-81
2023/09/29 11:43:27;;;;;;;6.63;2.10;;;;;;;;;;4921176;28;94918;-80
2023/09/29 11:45:55;;;;;;;7.32;2.10;;;;;;;;;;4950418;28;93299;-80
2023/09/29 11:48:22;;;;;;;6.55;2.03;;;;;;;;;;4931269;28;92526;-80
2023/09/29 11:50:49;;;;;;;7.05;2.00;;;;;;;;;;4933977;28;95231;-81
2023/09/29 11:53:15;;;;;;;4.82;2.03;;;;;;;;;;4931653;28;94250;-81
2023/09/29 11:55:42;;;;;;;11.70;2.08;;;;;;;;;;4951782;28;92771;-81
2023/09/29 11:58:09;;;;;;;5.60;1.60;;;;;;;;;;4948205;28;98675;-80
2023/09/29 12:00:36;;;;;;;4.45;1.60;;;;;;;;;;4952901;28;93787;-80
2023/09/29 12:03:05;;;;;;;6.05;1.80;;;;;;;;;;4948806;28;92696;-81
2023/09/29 12:05:33;;;;;;;4.65;1.60;;;;;;;;;;4947347;28;93090;-80
2023/09/29 12:08:04;;;;;;;4.70;1.70;;;;;;;;;;4949525;28;91717;-79
2023/09/29 12:10:31;;;;;;;5.47;1.65;;;;;;;;;;4948955;28;93919;-81
2023/09/29 12:13:00;;;;;;;3.67;1.50;;;;;;;;;;4939577;28;93078;-82
2023/09/29 12:15:28;;;;;;;4.70;1.33;;;;;;;;;;4946142;28;94903;-80
2023/09/29 12:17:55;;;;;;;3.67;1.40;;;;;;;;;;4949217;28;95550;-80
2023/09/29 12:20:23;;;;;;;6.22;1.70;;;;;;;;;;4947795;28;93138;-81
2023/09/29 12:22:50;;;;;;;5.25;1.55;;;;;;;;;;4951815;28;92488;-80
2023/09/29 12:25:17;;;;;;;;;;;;;;;;;;4948789;28;94599;-80
2023/09/29 12:27:44;;;;;;;2.90;1.23;;;;;;;;;;4949191;28;92557;-78
2023/09/29 12:30:12;;;;;;;;;;;;;;;;;;4948496;28;92773;-80
2023/09/29 12:32:39;;;;;;;5.70;1.50;;;;;;;;;;4935687;28;102664;-79
2023/09/29 12:35:06;;;;;;;;;;;;;;;;;;4949036;28;92574;-80
2023/09/29 12:37:33;;;;;;;3.05;1.30;;;;;;;;;;4949522;28;105700;-80
2023/09/29 12:39:59;;;;;;;3.55;1.50;;;;;;;;;;4937499;28;96762;-80
2023/09/29 12:42:26;;;;;;;3.85;1.50;;;;;;;;;;4961776;28;93198;-80
2023/09/29 12:44:52;;;;;;;3.78;1.50;;;;;;;;;;4951166;28;92944;-80
2023/09/29 12:47:19;;;;;;;4.05;1.60;;;;;;;;;;4948756;28;92834;-80
2023/09/29 12:49:46;;;;;;;4.20;1.48;;;;;;;;;;4947778;28;92545;-80
2023/09/29 12:52:13;;;;;;;4.90;1.60;;;;;;;;;;4949709;28;93434;-80
2023/09/29 12:54:40;;;;;;;5.57;1.50;;;;;;;;;;4948345;28;92924;-81
2023/09/29 12:57:07;;;;;;;4.43;1.50;;;;;;;;;;4948653;28;93268;-80
2023/09/29 12:59:36;;;;;;;2.78;1.25;;;;;;;;;;4935645;28;94169;-80
2023/09/29 13:02:04;;;;;;;5.40;1.45;;;;;;;;;;4930146;28;92554;-80
2023/09/29 13:04:30;;;;;;;4.65;1.58;;;;;;;;;;4927497;28;94996;-82
2023/09/29 13:06:58;;;;;;;3.63;1.17;;;;;;;;;;4927744;28;94132;-80
2023/09/29 13:09:25;;;;;;;5.22;1.40;;;;;;;;;;4937465;28;93425;-80
2023/09/29 13:11:52;;;;;;;7.38;1.40;;;;;;;;;;4923345;28;93794;-79
2023/09/29 13:14:19;;;;;;;4.50;1.50;;;;;;;;;;4927667;28;92618;-80
2023/09/29 13:16:45;;;;;;;6.05;1.40;;;;;;;;;;4927709;28;92596;-80
2023/09/29 13:19:12;;;;;;;3.03;1.20;;;;;;;;;;4928152;28;93763;-80
2023/09/29 13:21:38;;;;;;;4.18;1.25;;;;;;;;;;4942433;28;91829;-80
2023/09/29 13:24:05;;;;;;;5.20;1.30;;;;;;;;;;4925581;28;92970;-81
2023/09/29 13:26:32;;;;;;;3.92;1.30;;;;;;;;;;4927293;28;93220;-80
2023/09/29 13:28:58;;;;;;;5.45;1.55;;;;;;;;;;4927534;28;102882;-81
2023/09/29 13:31:26;;;;;;;5.90;1.55;;;;;;;;;;4928154;28;93272;-80
2023/09/29 13:33:53;;;;;;;6.13;1.45;;;;;;;;;;4927263;28;92855;-80
2023/09/29 13:36:20;;;;;;;;;;;;;;;;;;4925655;28;92715;-80
2023/09/29 13:38:48;;;;;;;5.75;1.58;;;;;;;;;;4953342;28;110820;-81
2023/09/29 13:41:14;;;;;;;4.07;1.30;;;;;;;;;;4946236;28;92970;-80
2023/09/29 13:43:42;;;;;;;4.93;1.40;;;;;;;;;;4951730;28;93062;-81
2023/09/29 13:46:08;;;;;;;4.75;1.40;;;;;;;;;;4950272;28;91736;-81
2023/09/29 13:48:35;;;;;;;4.30;1.60;;;;;;;;;;4954680;28;92980;-82
2023/09/29 13:51:03;;;;;;;7.10;1.35;;;;;;;;;;4965678;28;94623;-82
2023/09/29 13:53:30;;;;;;;5.32;1.30;;;;;;;;;;4952154;28;94933;-82
2023/09/29 13:55:57;;;;;;;6.43;1.60;;;;;;;;;;4951267;28;95155;-82
2023/09/29 13:58:24;;;;;;;6.50;1.52;;;;;;;;;;4957033;28;93037;-82
2023/09/29 14:00:50;;;;;;;;;;;;;;;;;;4964819;28;92459;-82
2023/09/29 14:03:17;;;;;;;6.05;1.50;;;;;;;;;;4952052;28;92872;-82
2023/09/29 14:05:44;;;;;;;;;;;;;;;;;;4945592;28;93089;-81
2023/09/29 14:08:11;;;;;;;4.60;1.50;;;;;;;;;;4954080;28;93218;-82
2023/09/29 14:10:38;;;;;;;8.25;1.60;;;;;;;;;;4954967;28;93950;-82
2023/09/29 14:13:04;;;;;;;6.13;1.40;;;;;;;;;;4946572;28;93049;-82
2023/09/29 14:15:34;;;;;;;6.82;1.80;;;;;;;;;;4965076;28;95788;-82
2023/09/29 14:18:01;;;;;;;4.75;1.52;;;;;;;;;;4945794;28;95578;-81
2023/09/29 14:20:33;;;;;;;6.50;1.80;;;;;;;;;;4949877;28;92477;-82
2023/09/29 14:23:02;;;;;;;6.38;1.55;;;;;;;;;;4941861;28;93050;-82
2023/09/29 14:25:28;;;;;;;6.55;1.75;;;;;;;;;;4950216;28;93144;-82
2023/09/29 14:27:55;;;;;;;5.85;1.60;;;;;;;;;;4950626;28;92558;-81
2023/09/29 14:30:22;;;;;;;5.93;1.70;;;;;;;;;;4950278;28;92696;-82
2023/09/29 14:32:50;;;;;;;7.85;1.90;;;;;;;;;;4937749;28;94209;-81
2023/09/29 14:35:17;;;;;;;6.30;1.70;;;;;;;;;;4938138;28;92800;-82
2023/09/29 14:37:45;;;;;;;7.88;1.67;;;;;;;;;;4950542;28;94310;-83
2023/09/29 14:40:11;;;;;;;6.18;1.90;;;;;;;;;;4948309;28;94824;-83
2023/09/29 14:42:38;;;;;;;7.03;1.73;;;;;;;;;;4949749;28;95430;-84
2023/09/29 14:45:05;;;;;;;8.02;1.73;;;;;;;;;;4949841;28;93444;-83
2023/09/29 14:47:32;;;;;;;6.10;1.70;;;;;;;;;;4947297;28;92730;-83
2023/09/29 14:50:00;;;;;;;6.18;1.67;;;;;;;;;;4950060;28;93274;-83